logo
Search for airport 
image banner adimage banner adimage banner ad
image banner ad

LTAJ - Gaziantep

Located in Gaziantep/Oguzeli, Turkey

ICAO - LTAJ, IATA - GZT

Data provided by Airmate  

General information

Coordinates: N36°56'52" E37°28'44"
Elevation is 2305 feet MSL.
Magnetic variation is 5.3° East
Rated:
View ratings:
[VIEW]
View others Airports in Gaziantep

Operational data

Special qualification required
Current time UTC:
Current local time:
Weather
METAR: LTAJ 291050Z 08004KT 050V120 9999 FEW040 BKN100 10/00 Q1022 NOSIG RMK RWY10 /////KT 2SC040 5AC100
TAF: TAF COR LTAJ 291040Z 2912/3012 03007KT 9999 FEW040 BKN100 BECMG 2912/2914 CAVOK
View NOTAMs / SUP AIP / TFR affecting this airport [VIEW]
Communications frequencies: [VIEW]

Runways:

RWY identifierQFULength (ft)Width (ft)SurfaceLDA (ft)
10105°9843157CONC9416
28285°9843157CONC9843

Airport contact information

Address: Gaziantep/Oguzeli Turkey

Satellite view of LTAJ